sensor_id;sensor_type;location;lat;lon;timestamp;P1;durP1;ratioP1;P2;durP2;ratioP2
70929;SDS011;58588;48.102;19.682;2022-08-03T00:02:47;10.25;;;6.18;;
70929;SDS011;58588;48.102;19.682;2022-08-03T00:05:49;11.53;;;6.10;;
70929;SDS011;58588;48.102;19.682;2022-08-03T00:08:51;12.35;;;6.47;;
70929;SDS011;58588;48.102;19.682;2022-08-03T00:11:53;12.40;;;6.70;;
70929;SDS011;58588;48.102;19.682;2022-08-03T00:14:55;10.35;;;6.63;;
70929;SDS011;58588;48.102;19.682;2022-08-03T00:17:58;12.20;;;6.32;;
70929;SDS011;58588;48.102;19.682;2022-08-03T00:21:00;13.50;;;6.67;;
70929;SDS011;58588;48.102;19.682;2022-08-03T00:24:02;10.00;;;6.57;;
70929;SDS011;58588;48.102;19.682;2022-08-03T00:27:05;11.40;;;6.38;;
70929;SDS011;58588;48.102;19.682;2022-08-03T00:30:07;9.82;;;6.45;;
70929;SDS011;58588;48.102;19.682;2022-08-03T00:33:11;11.18;;;6.75;;
70929;SDS011;58588;48.102;19.682;2022-08-03T00:36:13;9.40;;;6.13;;
70929;SDS011;58588;48.102;19.682;2022-08-03T00:39:15;9.93;;;6.25;;
70929;SDS011;58588;48.102;19.682;2022-08-03T00:42:17;11.00;;;6.05;;
70929;SDS011;58588;48.102;19.682;2022-08-03T00:45:19;12.48;;;6.78;;
70929;SDS011;58588;48.102;19.682;2022-08-03T00:48:25;13.80;;;7.45;;
70929;SDS011;58588;48.102;19.682;2022-08-03T00:51:27;13.50;;;6.87;;
70929;SDS011;58588;48.102;19.682;2022-08-03T00:54:29;10.57;;;6.10;;
70929;SDS011;58588;48.102;19.682;2022-08-03T00:57:32;12.07;;;6.65;;
70929;SDS011;58588;48.102;19.682;2022-08-03T01:00:35;10.23;;;6.50;;
70929;SDS011;58588;48.102;19.682;2022-08-03T01:03:40;11.65;;;6.80;;
70929;SDS011;58588;48.102;19.682;2022-08-03T01:06:44;11.03;;;7.03;;
70929;SDS011;58588;48.102;19.682;2022-08-03T01:09:51;13.40;;;7.07;;
70929;SDS011;58588;48.102;19.682;2022-08-03T01:13:01;10.45;;;6.80;;
70929;SDS011;58588;48.102;19.682;2022-08-03T01:16:08;12.15;;;7.25;;
70929;SDS011;58588;48.102;19.682;2022-08-03T01:19:22;10.70;;;6.78;;
70929;SDS011;58588;48.102;19.682;2022-08-03T01:26:09;11.05;;;6.50;;
70929;SDS011;58588;48.102;19.682;2022-08-03T01:33:02;12.40;;;6.65;;
70929;SDS011;58588;48.102;19.682;2022-08-03T01:36:06;12.27;;;6.72;;
70929;SDS011;58588;48.102;19.682;2022-08-03T01:39:11;14.23;;;6.80;;
70929;SDS011;58588;48.102;19.682;2022-08-03T01:42:14;11.73;;;6.65;;
70929;SDS011;58588;48.102;19.682;2022-08-03T01:45:20;10.68;;;6.68;;
70929;SDS011;58588;48.102;19.682;2022-08-03T01:48:23;12.05;;;6.65;;
70929;SDS011;58588;48.102;19.682;2022-08-03T01:51:27;12.05;;;6.68;;
70929;SDS011;58588;48.102;19.682;2022-08-03T01:54:31;11.47;;;6.83;;
70929;SDS011;58588;48.102;19.682;2022-08-03T01:57:37;11.95;;;6.80;;
70929;SDS011;58588;48.102;19.682;2022-08-03T02:00:42;11.43;;;7.07;;
70929;SDS011;58588;48.102;19.682;2022-08-03T02:03:46;11.80;;;6.93;;
70929;SDS011;58588;48.102;19.682;2022-08-03T02:06:50;12.52;;;6.70;;
70929;SDS011;58588;48.102;19.682;2022-08-03T02:09:53;10.30;;;6.13;;
70929;SDS011;58588;48.102;19.682;2022-08-03T02:12:57;11.73;;;6.80;;
70929;SDS011;58588;48.102;19.682;2022-08-03T02:16:03;11.18;;;6.28;;
70929;SDS011;58588;48.102;19.682;2022-08-03T02:19:06;11.38;;;6.47;;
70929;SDS011;58588;48.102;19.682;2022-08-03T02:22:10;12.18;;;6.43;;
70929;SDS011;58588;48.102;19.682;2022-08-03T02:25:14;9.80;;;6.37;;
70929;SDS011;58588;48.102;19.682;2022-08-03T02:28:17;13.02;;;6.72;;
70929;SDS011;58588;48.102;19.682;2022-08-03T02:31:23;12.40;;;6.47;;
70929;SDS011;58588;48.102;19.682;2022-08-03T02:34:28;14.23;;;6.65;;
70929;SDS011;58588;48.102;19.682;2022-08-03T02:37:36;10.98;;;6.57;;
70929;SDS011;58588;48.102;19.682;2022-08-03T02:40:42;12.03;;;5.97;;
70929;SDS011;58588;48.102;19.682;2022-08-03T02:43:46;11.50;;;6.38;;
70929;SDS011;58588;48.102;19.682;2022-08-03T02:46:53;13.52;;;6.97;;
70929;SDS011;58588;48.102;19.682;2022-08-03T02:49:59;12.13;;;6.53;;
70929;SDS011;58588;48.102;19.682;2022-08-03T02:53:03;29.35;;;6.60;;
70929;SDS011;58588;48.102;19.682;2022-08-03T02:56:06;12.80;;;6.30;;
70929;SDS011;58588;48.102;19.682;2022-08-03T02:59:10;13.13;;;6.38;;
70929;SDS011;58588;48.102;19.682;2022-08-03T03:02:15;11.50;;;6.80;;
70929;SDS011;58588;48.102;19.682;2022-08-03T03:05:19;11.90;;;6.80;;
70929;SDS011;58588;48.102;19.682;2022-08-03T03:08:21;11.55;;;6.70;;
70929;SDS011;58588;48.102;19.682;2022-08-03T03:11:25;13.03;;;6.67;;
70929;SDS011;58588;48.102;19.682;2022-08-03T03:14:27;12.23;;;7.35;;
70929;SDS011;58588;48.102;19.682;2022-08-03T03:17:31;11.68;;;7.07;;
70929;SDS011;58588;48.102;19.682;2022-08-03T03:20:34;12.38;;;6.45;;
70929;SDS011;58588;48.102;19.682;2022-08-03T03:23:38;14.52;;;7.32;;
70929;SDS011;58588;48.102;19.682;2022-08-03T03:26:41;12.10;;;6.70;;
70929;SDS011;58588;48.102;19.682;2022-08-03T03:29:44;13.15;;;6.40;;
70929;SDS011;58588;48.102;19.682;2022-08-03T03:32:47;11.38;;;6.53;;
70929;SDS011;58588;48.102;19.682;2022-08-03T03:35:49;11.23;;;6.43;;
70929;SDS011;58588;48.102;19.682;2022-08-03T03:38:52;10.30;;;6.40;;
70929;SDS011;58588;48.102;19.682;2022-08-03T03:41:54;10.90;;;6.43;;
70929;SDS011;58588;48.102;19.682;2022-08-03T03:44:56;14.98;;;6.55;;
70929;SDS011;58588;48.102;19.682;2022-08-03T03:48:00;12.27;;;6.82;;
70929;SDS011;58588;48.102;19.682;2022-08-03T03:51:02;17.20;;;6.57;;
70929;SDS011;58588;48.102;19.682;2022-08-03T03:54:04;15.20;;;6.80;;
70929;SDS011;58588;48.102;19.682;2022-08-03T03:57:06;13.03;;;6.40;;
70929;SDS011;58588;48.102;19.682;2022-08-03T04:00:10;12.27;;;6.90;;
70929;SDS011;58588;48.102;19.682;2022-08-03T04:03:14;11.13;;;6.70;;
70929;SDS011;58588;48.102;19.682;2022-08-03T04:06:16;12.00;;;6.63;;
70929;SDS011;58588;48.102;19.682;2022-08-03T04:09:37;11.48;;;6.68;;
70929;SDS011;58588;48.102;19.682;2022-08-03T04:12:59;11.80;;;6.23;;
70929;SDS011;58588;48.102;19.682;2022-08-03T04:16:04;13.98;;;6.68;;
70929;SDS011;58588;48.102;19.682;2022-08-03T04:19:12;14.73;;;7.93;;
70929;SDS011;58588;48.102;19.682;2022-08-03T04:22:17;12.13;;;7.07;;
70929;SDS011;58588;48.102;19.682;2022-08-03T04:25:23;14.75;;;7.90;;
70929;SDS011;58588;48.102;19.682;2022-08-03T04:28:29;17.80;;;7.73;;
70929;SDS011;58588;48.102;19.682;2022-08-03T04:31:33;12.10;;;6.68;;
70929;SDS011;58588;48.102;19.682;2022-08-03T04:34:39;13.90;;;7.45;;
70929;SDS011;58588;48.102;19.682;2022-08-03T04:37:42;12.30;;;6.55;;
70929;SDS011;58588;48.102;19.682;2022-08-03T04:40:48;15.15;;;7.47;;
70929;SDS011;58588;48.102;19.682;2022-08-03T04:43:52;14.83;;;7.13;;
70929;SDS011;58588;48.102;19.682;2022-08-03T04:46:55;10.73;;;7.30;;
70929;SDS011;58588;48.102;19.682;2022-08-03T04:50:00;14.40;;;7.38;;
70929;SDS011;58588;48.102;19.682;2022-08-03T04:53:04;12.98;;;7.30;;
70929;SDS011;58588;48.102;19.682;2022-08-03T04:56:07;12.95;;;7.43;;
70929;SDS011;58588;48.102;19.682;2022-08-03T04:59:09;12.63;;;7.67;;
70929;SDS011;58588;48.102;19.682;2022-08-03T05:02:11;12.70;;;8.00;;
70929;SDS011;58588;48.102;19.682;2022-08-03T05:05:15;15.80;;;8.45;;
70929;SDS011;58588;48.102;19.682;2022-08-03T05:08:17;12.00;;;7.35;;
70929;SDS011;58588;48.102;19.682;2022-08-03T05:11:19;17.13;;;8.43;;
70929;SDS011;58588;48.102;19.682;2022-08-03T05:14:21;12.23;;;7.87;;
70929;SDS011;58588;48.102;19.682;2022-08-03T05:17:23;12.63;;;7.65;;
70929;SDS011;58588;48.102;19.682;2022-08-03T05:20:26;12.40;;;8.25;;
70929;SDS011;58588;48.102;19.682;2022-08-03T05:23:28;14.68;;;7.70;;
70929;SDS011;58588;48.102;19.682;2022-08-03T05:26:30;12.93;;;7.90;;
70929;SDS011;58588;48.102;19.682;2022-08-03T05:29:32;14.80;;;8.00;;
70929;SDS011;58588;48.102;19.682;2022-08-03T05:32:34;12.90;;;8.15;;
70929;SDS011;58588;48.102;19.682;2022-08-03T05:35:37;13.88;;;8.30;;
70929;SDS011;58588;48.102;19.682;2022-08-03T05:38:39;12.70;;;8.05;;
70929;SDS011;58588;48.102;19.682;2022-08-03T05:41:42;12.55;;;7.63;;
70929;SDS011;58588;48.102;19.682;2022-08-03T05:44:43;14.37;;;8.43;;
70929;SDS011;58588;48.102;19.682;2022-08-03T05:47:45;13.48;;;8.55;;
70929;SDS011;58588;48.102;19.682;2022-08-03T05:50:51;13.13;;;8.52;;
70929;SDS011;58588;48.102;19.682;2022-08-03T05:53:52;11.35;;;7.07;;
70929;SDS011;58588;48.102;19.682;2022-08-03T05:56:54;14.30;;;7.78;;
70929;SDS011;58588;48.102;19.682;2022-08-03T05:59:56;11.67;;;7.57;;
70929;SDS011;58588;48.102;19.682;2022-08-03T06:02:58;12.25;;;7.88;;
70929;SDS011;58588;48.102;19.682;2022-08-03T06:06:02;12.10;;;8.10;;
70929;SDS011;58588;48.102;19.682;2022-08-03T06:09:04;12.90;;;7.43;;
70929;SDS011;58588;48.102;19.682;2022-08-03T06:12:06;11.73;;;7.78;;
70929;SDS011;58588;48.102;19.682;2022-08-03T06:15:08;11.37;;;7.10;;
70929;SDS011;58588;48.102;19.682;2022-08-03T06:18:10;14.27;;;7.15;;
70929;SDS011;58588;48.102;19.682;2022-08-03T06:21:14;10.50;;;7.05;;
70929;SDS011;58588;48.102;19.682;2022-08-03T06:24:16;14.13;;;7.10;;
70929;SDS011;58588;48.102;19.682;2022-08-03T06:27:18;15.85;;;7.90;;
70929;SDS011;58588;48.102;19.682;2022-08-03T06:30:20;12.57;;;7.00;;
70929;SDS011;58588;48.102;19.682;2022-08-03T06:33:22;11.90;;;7.50;;
70929;SDS011;58588;48.102;19.682;2022-08-03T06:36:27;12.35;;;7.53;;
70929;SDS011;58588;48.102;19.682;2022-08-03T06:39:30;12.02;;;7.55;;
70929;SDS011;58588;48.102;19.682;2022-08-03T06:42:32;11.57;;;7.03;;
70929;SDS011;58588;48.102;19.682;2022-08-03T06:45:34;11.63;;;6.60;;
70929;SDS011;58588;48.102;19.682;2022-08-03T06:48:36;11.30;;;7.15;;
70929;SDS011;58588;48.102;19.682;2022-08-03T06:51:39;11.23;;;7.15;;
70929;SDS011;58588;48.102;19.682;2022-08-03T06:54:41;14.02;;;7.10;;
70929;SDS011;58588;48.102;19.682;2022-08-03T06:57:43;15.15;;;7.13;;
70929;SDS011;58588;48.102;19.682;2022-08-03T07:00:45;13.57;;;6.87;;
70929;SDS011;58588;48.102;19.682;2022-08-03T07:03:47;11.65;;;6.80;;
70929;SDS011;58588;48.102;19.682;2022-08-03T07:06:50;12.30;;;6.82;;
70929;SDS011;58588;48.102;19.682;2022-08-03T07:09:53;13.68;;;7.18;;
70929;SDS011;58588;48.102;19.682;2022-08-03T07:12:55;11.90;;;7.10;;
70929;SDS011;58588;48.102;19.682;2022-08-03T07:15:57;11.43;;;6.97;;
70929;SDS011;58588;48.102;19.682;2022-08-03T07:18:59;9.85;;;6.70;;
70929;SDS011;58588;48.102;19.682;2022-08-03T07:22:02;11.77;;;7.82;;
70929;SDS011;58588;48.102;19.682;2022-08-03T07:25:04;10.07;;;7.13;;
70929;SDS011;58588;48.102;19.682;2022-08-03T07:28:07;11.32;;;6.65;;
70929;SDS011;58588;48.102;19.682;2022-08-03T07:31:09;9.30;;;6.67;;
70929;SDS011;58588;48.102;19.682;2022-08-03T07:34:11;9.95;;;6.72;;
70929;SDS011;58588;48.102;19.682;2022-08-03T07:37:15;11.43;;;7.20;;
70929;SDS011;58588;48.102;19.682;2022-08-03T07:40:16;16.70;;;8.50;;
70929;SDS011;58588;48.102;19.682;2022-08-03T07:43:19;10.90;;;7.10;;
70929;SDS011;58588;48.102;19.682;2022-08-03T07:46:21;13.00;;;6.63;;
70929;SDS011;58588;48.102;19.682;2022-08-03T07:49:23;10.88;;;7.43;;
70929;SDS011;58588;48.102;19.682;2022-08-03T07:52:26;12.15;;;7.50;;
70929;SDS011;58588;48.102;19.682;2022-08-03T07:55:46;13.57;;;7.15;;
70929;SDS011;58588;48.102;19.682;2022-08-03T07:58:47;14.90;;;7.30;;
70929;SDS011;58588;48.102;19.682;2022-08-03T08:01:49;11.97;;;7.23;;
70929;SDS011;58588;48.102;19.682;2022-08-03T08:04:52;10.57;;;7.25;;
70929;SDS011;58588;48.102;19.682;2022-08-03T08:07:56;13.90;;;7.43;;
70929;SDS011;58588;48.102;19.682;2022-08-03T08:10:58;11.50;;;7.63;;
70929;SDS011;58588;48.102;19.682;2022-08-03T08:14:00;10.95;;;7.10;;
70929;SDS011;58588;48.102;19.682;2022-08-03T08:17:03;11.37;;;7.20;;
70929;SDS011;58588;48.102;19.682;2022-08-03T08:20:05;12.50;;;7.10;;
70929;SDS011;58588;48.102;19.682;2022-08-03T08:23:09;10.77;;;7.25;;
70929;SDS011;58588;48.102;19.682;2022-08-03T08:26:11;10.25;;;6.85;;
70929;SDS011;58588;48.102;19.682;2022-08-03T08:29:13;10.55;;;6.95;;
70929;SDS011;58588;48.102;19.682;2022-08-03T08:32:15;11.33;;;7.03;;
70929;SDS011;58588;48.102;19.682;2022-08-03T08:35:17;10.63;;;7.00;;
70929;SDS011;58588;48.102;19.682;2022-08-03T08:38:21;9.48;;;6.82;;
70929;SDS011;58588;48.102;19.682;2022-08-03T08:41:23;12.60;;;7.78;;
70929;SDS011;58588;48.102;19.682;2022-08-03T08:44:25;10.85;;;6.63;;
70929;SDS011;58588;48.102;19.682;2022-08-03T08:47:29;11.60;;;7.10;;
70929;SDS011;58588;48.102;19.682;2022-08-03T08:50:32;12.00;;;6.60;;
70929;SDS011;58588;48.102;19.682;2022-08-03T08:53:36;12.23;;;7.03;;
70929;SDS011;58588;48.102;19.682;2022-08-03T08:56:41;11.70;;;7.35;;
70929;SDS011;58588;48.102;19.682;2022-08-03T08:59:44;12.63;;;6.78;;
70929;SDS011;58588;48.102;19.682;2022-08-03T09:02:46;9.90;;;6.60;;
70929;SDS011;58588;48.102;19.682;2022-08-03T09:05:48;12.55;;;6.72;;
70929;SDS011;58588;48.102;19.682;2022-08-03T09:08:51;10.55;;;6.90;;
70929;SDS011;58588;48.102;19.682;2022-08-03T09:11:54;9.00;;;6.40;;
70929;SDS011;58588;48.102;19.682;2022-08-03T09:14:56;9.95;;;6.57;;
70929;SDS011;58588;48.102;19.682;2022-08-03T09:17:58;8.73;;;5.77;;
70929;SDS011;58588;48.102;19.682;2022-08-03T09:21:11;8.85;;;5.82;;
70929;SDS011;58588;48.102;19.682;2022-08-03T09:24:16;10.50;;;5.72;;
70929;SDS011;58588;48.102;19.682;2022-08-03T09:27:23;8.73;;;5.53;;
70929;SDS011;58588;48.102;19.682;2022-08-03T09:30:25;8.27;;;5.50;;
70929;SDS011;58588;48.102;19.682;2022-08-03T09:33:26;8.10;;;5.27;;
70929;SDS011;58588;48.102;19.682;2022-08-03T09:36:35;10.07;;;5.55;;
70929;SDS011;58588;48.102;19.682;2022-08-03T09:39:41;7.72;;;5.22;;
70929;SDS011;58588;48.102;19.682;2022-08-03T09:42:47;7.68;;;4.63;;
70929;SDS011;58588;48.102;19.682;2022-08-03T09:46:05;9.23;;;4.93;;
70929;SDS011;58588;48.102;19.682;2022-08-03T09:49:08;9.60;;;5.40;;
70929;SDS011;58588;48.102;19.682;2022-08-03T09:52:12;9.02;;;5.55;;
70929;SDS011;58588;48.102;19.682;2022-08-03T09:55:16;8.00;;;5.35;;
70929;SDS011;58588;48.102;19.682;2022-08-03T09:58:23;8.00;;;4.80;;
70929;SDS011;58588;48.102;19.682;2022-08-03T10:01:30;8.73;;;4.70;;
70929;SDS011;58588;48.102;19.682;2022-08-03T10:04:33;8.03;;;4.93;;
70929;SDS011;58588;48.102;19.682;2022-08-03T10:07:41;7.18;;;4.47;;
70929;SDS011;58588;48.102;19.682;2022-08-03T10:10:46;6.30;;;3.70;;
70929;SDS011;58588;48.102;19.682;2022-08-03T10:13:49;7.00;;;4.15;;
70929;SDS011;58588;48.102;19.682;2022-08-03T10:16:51;6.40;;;4.07;;
70929;SDS011;58588;48.102;19.682;2022-08-03T10:19:53;8.70;;;4.47;;
70929;SDS011;58588;48.102;19.682;2022-08-03T10:22:55;6.63;;;4.05;;
70929;SDS011;58588;48.102;19.682;2022-08-03T10:26:00;7.38;;;4.80;;
70929;SDS011;58588;48.102;19.682;2022-08-03T10:29:04;7.28;;;4.38;;
70929;SDS011;58588;48.102;19.682;2022-08-03T10:32:12;8.57;;;5.32;;
70929;SDS011;58588;48.102;19.682;2022-08-03T10:35:19;8.87;;;4.90;;
70929;SDS011;58588;48.102;19.682;2022-08-03T10:38:23;9.52;;;4.97;;
70929;SDS011;58588;48.102;19.682;2022-08-03T10:41:31;10.27;;;5.07;;
70929;SDS011;58588;48.102;19.682;2022-08-03T10:44:38;7.32;;;5.10;;
70929;SDS011;58588;48.102;19.682;2022-08-03T10:47:41;7.22;;;4.70;;
70929;SDS011;58588;48.102;19.682;2022-08-03T10:50:44;7.07;;;4.43;;
70929;SDS011;58588;48.102;19.682;2022-08-03T10:53:46;8.50;;;4.95;;
70929;SDS011;58588;48.102;19.682;2022-08-03T10:56:50;7.85;;;5.05;;
70929;SDS011;58588;48.102;19.682;2022-08-03T11:00:10;8.00;;;4.60;;
70929;SDS011;58588;48.102;19.682;2022-08-03T11:03:13;7.13;;;4.45;;
70929;SDS011;58588;48.102;19.682;2022-08-03T11:06:15;6.90;;;4.67;;
70929;SDS011;58588;48.102;19.682;2022-08-03T11:09:18;7.53;;;4.80;;
70929;SDS011;58588;48.102;19.682;2022-08-03T11:12:22;8.50;;;4.82;;
70929;SDS011;58588;48.102;19.682;2022-08-03T11:15:30;7.30;;;4.70;;
70929;SDS011;58588;48.102;19.682;2022-08-03T11:18:33;9.80;;;4.47;;
70929;SDS011;58588;48.102;19.682;2022-08-03T11:21:54;6.17;;;4.03;;
70929;SDS011;58588;48.102;19.682;2022-08-03T11:25:00;8.77;;;4.45;;
70929;SDS011;58588;48.102;19.682;2022-08-03T11:35:06;7.18;;;4.15;;
70929;SDS011;58588;48.102;19.682;2022-08-03T11:38:09;6.70;;;4.10;;
70929;SDS011;58588;48.102;19.682;2022-08-03T11:44:43;6.88;;;4.22;;
70929;SDS011;58588;48.102;19.682;2022-08-03T11:47:45;7.20;;;3.92;;
70929;SDS011;58588;48.102;19.682;2022-08-03T11:50:49;7.15;;;3.95;;
70929;SDS011;58588;48.102;19.682;2022-08-03T11:53:52;7.30;;;4.40;;
70929;SDS011;58588;48.102;19.682;2022-08-03T11:56:55;7.60;;;4.10;;
70929;SDS011;58588;48.102;19.682;2022-08-03T11:59:58;6.85;;;4.10;;
70929;SDS011;58588;48.102;19.682;2022-08-03T12:03:01;8.10;;;4.22;;
70929;SDS011;58588;48.102;19.682;2022-08-03T12:06:08;6.28;;;3.80;;
70929;SDS011;58588;48.102;19.682;2022-08-03T12:09:14;6.80;;;4.10;;
70929;SDS011;58588;48.102;19.682;2022-08-03T12:12:16;8.20;;;4.18;;
70929;SDS011;58588;48.102;19.682;2022-08-03T12:15:24;6.72;;;3.85;;
70929;SDS011;58588;48.102;19.682;2022-08-03T12:18:27;6.78;;;3.88;;
70929;SDS011;58588;48.102;19.682;2022-08-03T12:21:29;7.32;;;4.20;;
70929;SDS011;58588;48.102;19.682;2022-08-03T12:24:38;7.67;;;4.13;;
70929;SDS011;58588;48.102;19.682;2022-08-03T12:27:41;8.23;;;3.78;;
70929;SDS011;58588;48.102;19.682;2022-08-03T12:30:46;7.53;;;4.30;;
70929;SDS011;58588;48.102;19.682;2022-08-03T12:33:59;5.90;;;3.50;;
70929;SDS011;58588;48.102;19.682;2022-08-03T12:37:03;6.88;;;4.00;;
70929;SDS011;58588;48.102;19.682;2022-08-03T12:40:06;6.37;;;3.70;;
70929;SDS011;58588;48.102;19.682;2022-08-03T12:43:10;9.48;;;4.00;;
70929;SDS011;58588;48.102;19.682;2022-08-03T12:46:15;11.25;;;4.30;;
70929;SDS011;58588;48.102;19.682;2022-08-03T12:49:17;8.40;;;3.97;;
70929;SDS011;58588;48.102;19.682;2022-08-03T12:52:20;9.20;;;4.07;;
70929;SDS011;58588;48.102;19.682;2022-08-03T12:55:23;7.30;;;3.80;;
70929;SDS011;58588;48.102;19.682;2022-08-03T12:58:33;5.88;;;3.50;;
70929;SDS011;58588;48.102;19.682;2022-08-03T13:01:37;6.35;;;3.67;;
70929;SDS011;58588;48.102;19.682;2022-08-03T13:04:39;5.90;;;3.40;;
70929;SDS011;58588;48.102;19.682;2022-08-03T13:07:42;9.20;;;3.50;;
70929;SDS011;58588;48.102;19.682;2022-08-03T13:10:45;6.37;;;3.27;;
70929;SDS011;58588;48.102;19.682;2022-08-03T13:13:50;6.30;;;3.63;;
70929;SDS011;58588;48.102;19.682;2022-08-03T13:16:54;6.38;;;3.15;;
70929;SDS011;58588;48.102;19.682;2022-08-03T13:23:47;7.53;;;3.15;;
70929;SDS011;58588;48.102;19.682;2022-08-03T13:26:49;5.37;;;2.53;;
70929;SDS011;58588;48.102;19.682;2022-08-03T13:30:07;5.90;;;2.60;;
70929;SDS011;58588;48.102;19.682;2022-08-03T13:33:11;5.75;;;3.00;;
70929;SDS011;58588;48.102;19.682;2022-08-03T13:36:13;5.32;;;2.70;;
70929;SDS011;58588;48.102;19.682;2022-08-03T13:39:16;5.35;;;3.03;;
70929;SDS011;58588;48.102;19.682;2022-08-03T13:42:19;7.30;;;3.10;;
70929;SDS011;58588;48.102;19.682;2022-08-03T13:45:21;5.57;;;3.03;;
70929;SDS011;58588;48.102;19.682;2022-08-03T13:48:24;6.25;;;3.15;;
70929;SDS011;58588;48.102;19.682;2022-08-03T13:51:26;6.18;;;3.22;;
70929;SDS011;58588;48.102;19.682;2022-08-03T13:54:28;5.90;;;3.30;;
70929;SDS011;58588;48.102;19.682;2022-08-03T13:57:31;6.67;;;3.13;;
70929;SDS011;58588;48.102;19.682;2022-08-03T14:00:34;8.25;;;3.38;;
70929;SDS011;58588;48.102;19.682;2022-08-03T14:03:37;6.93;;;3.55;;
70929;SDS011;58588;48.102;19.682;2022-08-03T14:06:54;5.50;;;3.30;;
70929;SDS011;58588;48.102;19.682;2022-08-03T14:09:56;6.32;;;3.30;;
70929;SDS011;58588;48.102;19.682;2022-08-03T14:12:58;6.20;;;3.40;;
70929;SDS011;58588;48.102;19.682;2022-08-03T14:16:00;6.80;;;3.28;;
70929;SDS011;58588;48.102;19.682;2022-08-03T14:19:04;6.18;;;3.22;;
70929;SDS011;58588;48.102;19.682;2022-08-03T14:22:06;5.88;;;3.20;;
70929;SDS011;58588;48.102;19.682;2022-08-03T14:25:08;5.75;;;3.03;;
70929;SDS011;58588;48.102;19.682;2022-08-03T14:28:10;6.17;;;3.10;;
70929;SDS011;58588;48.102;19.682;2022-08-03T14:31:12;6.43;;;3.50;;
70929;SDS011;58588;48.102;19.682;2022-08-03T14:34:15;7.32;;;3.13;;
70929;SDS011;58588;48.102;19.682;2022-08-03T14:37:17;5.95;;;3.15;;
70929;SDS011;58588;48.102;19.682;2022-08-03T14:40:19;6.65;;;3.30;;
70929;SDS011;58588;48.102;19.682;2022-08-03T14:43:22;5.47;;;3.10;;
70929;SDS011;58588;48.102;19.682;2022-08-03T14:46:25;5.82;;;3.58;;
70929;SDS011;58588;48.102;19.682;2022-08-03T14:49:29;6.72;;;3.45;;
70929;SDS011;58588;48.102;19.682;2022-08-03T14:52:32;6.10;;;3.33;;
70929;SDS011;58588;48.102;19.682;2022-08-03T14:55:35;7.03;;;3.45;;
70929;SDS011;58588;48.102;19.682;2022-08-03T14:58:37;7.03;;;3.40;;
70929;SDS011;58588;48.102;19.682;2022-08-03T15:01:39;6.50;;;3.40;;
70929;SDS011;58588;48.102;19.682;2022-08-03T15:04:43;5.93;;;3.20;;
70929;SDS011;58588;48.102;19.682;2022-08-03T15:07:44;7.30;;;3.33;;
70929;SDS011;58588;48.102;19.682;2022-08-03T15:10:46;5.63;;;3.22;;
70929;SDS011;58588;48.102;19.682;2022-08-03T15:13:49;5.53;;;2.97;;
70929;SDS011;58588;48.102;19.682;2022-08-03T15:16:51;6.28;;;3.40;;
70929;SDS011;58588;48.102;19.682;2022-08-03T15:19:55;7.25;;;3.30;;
70929;SDS011;58588;48.102;19.682;2022-08-03T15:22:57;5.50;;;3.20;;
70929;SDS011;58588;48.102;19.682;2022-08-03T15:25:59;8.45;;;3.70;;
70929;SDS011;58588;48.102;19.682;2022-08-03T15:29:01;5.50;;;3.40;;
70929;SDS011;58588;48.102;19.682;2022-08-03T15:32:03;6.35;;;3.28;;
70929;SDS011;58588;48.102;19.682;2022-08-03T15:35:07;5.88;;;3.20;;
70929;SDS011;58588;48.102;19.682;2022-08-03T15:38:09;7.03;;;3.50;;
70929;SDS011;58588;48.102;19.682;2022-08-03T15:41:11;8.50;;;3.50;;
70929;SDS011;58588;48.102;19.682;2022-08-03T15:44:14;6.87;;;3.40;;
70929;SDS011;58588;48.102;19.682;2022-08-03T15:47:19;7.05;;;3.30;;
70929;SDS011;58588;48.102;19.682;2022-08-03T15:50:23;10.23;;;3.70;;
70929;SDS011;58588;48.102;19.682;2022-08-03T15:53:25;6.00;;;3.25;;
70929;SDS011;58588;48.102;19.682;2022-08-03T15:56:26;7.70;;;3.40;;
70929;SDS011;58588;48.102;19.682;2022-08-03T15:59:29;5.70;;;3.20;;
70929;SDS011;58588;48.102;19.682;2022-08-03T16:02:31;6.63;;;3.75;;
70929;SDS011;58588;48.102;19.682;2022-08-03T16:05:34;5.80;;;3.42;;
70929;SDS011;58588;48.102;19.682;2022-08-03T16:08:36;5.63;;;3.35;;
70929;SDS011;58588;48.102;19.682;2022-08-03T16:11:38;5.57;;;3.33;;
70929;SDS011;58588;48.102;19.682;2022-08-03T16:14:40;8.27;;;3.63;;
70929;SDS011;58588;48.102;19.682;2022-08-03T16:17:42;5.50;;;3.15;;
70929;SDS011;58588;48.102;19.682;2022-08-03T16:20:45;6.57;;;3.63;;
70929;SDS011;58588;48.102;19.682;2022-08-03T16:23:48;7.18;;;3.83;;
70929;SDS011;58588;48.102;19.682;2022-08-03T16:26:50;6.70;;;3.60;;
70929;SDS011;58588;48.102;19.682;2022-08-03T16:29:52;6.37;;;3.73;;
70929;SDS011;58588;48.102;19.682;2022-08-03T16:32:54;12.55;;;3.63;;
70929;SDS011;58588;48.102;19.682;2022-08-03T16:35:57;9.32;;;3.83;;
70929;SDS011;58588;48.102;19.682;2022-08-03T16:38:59;10.50;;;3.45;;
70929;SDS011;58588;48.102;19.682;2022-08-03T16:42:01;7.57;;;3.78;;
70929;SDS011;58588;48.102;19.682;2022-08-03T16:45:03;6.03;;;3.40;;
70929;SDS011;58588;48.102;19.682;2022-08-03T16:48:06;5.70;;;3.50;;
70929;SDS011;58588;48.102;19.682;2022-08-03T16:51:09;7.72;;;3.47;;
70929;SDS011;58588;48.102;19.682;2022-08-03T16:54:11;8.20;;;3.38;;
70929;SDS011;58588;48.102;19.682;2022-08-03T16:57:14;7.55;;;3.13;;
70929;SDS011;58588;48.102;19.682;2022-08-03T17:00:16;7.83;;;3.23;;
70929;SDS011;58588;48.102;19.682;2022-08-03T17:03:18;6.32;;;3.20;;
70929;SDS011;58588;48.102;19.682;2022-08-03T17:06:23;7.40;;;3.65;;
70929;SDS011;58588;48.102;19.682;2022-08-03T17:09:25;6.00;;;3.50;;
70929;SDS011;58588;48.102;19.682;2022-08-03T17:12:29;7.60;;;3.35;;
70929;SDS011;58588;48.102;19.682;2022-08-03T17:15:31;9.40;;;3.80;;
70929;SDS011;58588;48.102;19.682;2022-08-03T17:18:33;7.07;;;3.40;;
70929;SDS011;58588;48.102;19.682;2022-08-03T17:21:41;6.80;;;3.78;;
70929;SDS011;58588;48.102;19.682;2022-08-03T17:24:50;7.55;;;3.70;;
70929;SDS011;58588;48.102;19.682;2022-08-03T17:27:53;8.00;;;4.07;;
70929;SDS011;58588;48.102;19.682;2022-08-03T17:30:57;7.67;;;4.00;;
70929;SDS011;58588;48.102;19.682;2022-08-03T17:34:18;7.25;;;3.55;;
70929;SDS011;58588;48.102;19.682;2022-08-03T17:37:23;16.77;;;5.53;;
70929;SDS011;58588;48.102;19.682;2022-08-03T17:40:26;7.25;;;4.05;;
70929;SDS011;58588;48.102;19.682;2022-08-03T17:43:29;9.10;;;4.18;;
70929;SDS011;58588;48.102;19.682;2022-08-03T17:46:31;8.30;;;3.77;;
70929;SDS011;58588;48.102;19.682;2022-08-03T17:49:33;7.70;;;4.10;;
70929;SDS011;58588;48.102;19.682;2022-08-03T17:52:40;12.13;;;4.97;;
70929;SDS011;58588;48.102;19.682;2022-08-03T17:55:48;39.60;;;10.07;;
70929;SDS011;58588;48.102;19.682;2022-08-03T17:59:00;12.02;;;5.28;;
70929;SDS011;58588;48.102;19.682;2022-08-03T18:02:12;7.53;;;4.63;;
70929;SDS011;58588;48.102;19.682;2022-08-03T18:05:45;27.23;;;8.80;;
70929;SDS011;58588;48.102;19.682;2022-08-03T18:08:53;34.47;;;7.00;;
70929;SDS011;58588;48.102;19.682;2022-08-03T18:11:56;21.35;;;6.55;;
70929;SDS011;58588;48.102;19.682;2022-08-03T18:15:02;10.68;;;5.05;;
70929;SDS011;58588;48.102;19.682;2022-08-03T18:18:05;12.53;;;4.73;;
70929;SDS011;58588;48.102;19.682;2022-08-03T18:21:08;13.32;;;5.00;;
70929;SDS011;58588;48.102;19.682;2022-08-03T18:24:14;10.23;;;4.95;;
70929;SDS011;58588;48.102;19.682;2022-08-03T18:27:19;7.78;;;5.03;;